Time;durP1;ratioP1;P1;durP2;ratioP2;P2;SDS_P1;SDS_P2;PMS_P1;PMS_P2;Temp;Humidity;BMP_temperature;BMP_pressure;BME280_temperature;BME280_humidity;BME280_pressure;Samples;Min_cycle;Max_cycle;Signal;HPM_P1;HPM_P2
2022/02/12 06:18:58;;;;;;;30.45;12.77;;;128.10;2176.00;;;;;;5184787;23;19922;-77
2022/02/12 06:21:25;;;;;;;35.28;13.10;;;128.10;2201.60;;;;;;4934510;29;20028;-78
2022/02/12 06:23:53;;;;;;;91.00;44.33;;;128.10;2176.00;;;;;;4951124;29;20032;-78
2022/02/12 06:26:43;;;;;;;70.10;32.78;;;128.10;2201.60;;;;;;4952716;29;20036;-78
2022/02/12 06:29:17;;;;;;;32.03;16.27;;;128.10;2201.60;;;;;;4935179;29;20047;-79
2022/02/12 06:31:45;;;;;;;28.10;11.82;;;128.10;2201.60;;;;;;4937950;29;20023;-78
2022/02/12 06:34:12;;;;;;;27.52;13.90;;;128.10;2176.00;;;;;;4938485;29;20061;-78
2022/02/12 06:36:49;;;;;;;31.33;15.35;;;128.10;2201.60;;;;;;4958236;29;20054;-79
2022/02/12 06:39:21;;;;;;;17.52;9.70;;;128.00;2201.60;;;;;;4956850;29;20197;-79
2022/02/12 06:41:53;;;;;;;13.80;8.00;;;128.10;2201.60;;;;;;4939486;29;20035;-79
2022/02/12 06:44:22;;;;;;;25.13;10.90;;;128.00;2227.20;;;;;;4939646;29;20107;-78
2022/02/12 06:47:00;;;;;;;32.50;13.65;;;128.00;2201.60;;;;;;4941429;29;20031;-81
2022/02/12 06:54:37;;;;;;;29.38;12.23;;;128.10;2201.60;;;;;;4910269;27;20043;-81
2022/02/12 06:57:03;;;;;;;24.77;9.73;;;128.10;2201.60;;;;;;4899954;29;20033;-79
2022/02/12 07:02:33;;;;;;;48.83;20.25;;;128.20;2227.20;;;;;;5683734;23;19919;-79
2022/02/12 07:05:14;;;;;;;46.05;19.90;;;128.20;2227.20;;;;;;4922265;29;20041;-82
2022/02/12 07:07:52;;;;;;;38.55;17.40;;;128.20;2227.20;;;;;;4917053;29;20138;-77
2022/02/12 07:14:01;;;;;;;37.33;14.82;;;128.20;2227.20;;;;;;4920885;29;20040;-77
2022/02/12 07:16:27;;;;;;;24.42;9.30;;;128.20;2227.20;;;;;;4910312;29;20092;-77
2022/02/12 07:18:53;;;;;;;18.15;7.72;;;128.30;2227.20;;;;;;4905685;29;20107;-76
2022/02/12 07:21:23;;;;;;;14.73;7.07;;;128.30;2227.20;;;;;;4911425;29;20556;-78
2022/02/12 07:23:51;;;;;;;30.40;14.65;;;128.30;2227.20;;;;;;4908128;29;20039;-78
2022/02/12 07:26:28;;;;;;;42.38;18.77;;;128.30;2227.20;;;;;;4912931;29;20039;-78
2022/02/12 07:28:59;;;;;;;19.15;8.30;;;128.40;2227.20;;;;;;4903213;29;20028;-79
2022/02/12 07:31:29;;;;;;;8.65;4.32;;;128.50;2227.20;;;;;;4902477;29;20028;-80
2022/02/12 07:34:14;;;;;;;11.48;4.88;;;128.40;2252.80;;;;;;4916511;29;20025;-78
2022/02/12 07:36:43;;;;;;;16.98;7.20;;;128.30;2252.80;;;;;;4897192;29;20056;-78
2022/02/12 07:39:34;;;;;;;13.63;5.35;;;128.40;2252.80;;;;;;4898731;29;20037;-79
2022/02/12 07:42:23;;;;;;;18.67;5.07;;;128.50;2227.20;;;;;;4881474;29;20025;-81
2022/02/12 07:45:02;;;;;;;11.32;4.55;;;128.50;2252.80;;;;;;4899221;29;20013;-80
2022/02/12 07:47:34;;;;;;;7.75;4.50;;;128.50;2252.80;;;;;;4883741;29;20058;-78
2022/02/12 07:50:14;;;;;;;21.05;10.95;;;128.70;2252.80;;;;;;4894500;29;20077;-79
2022/02/12 07:53:05;;;;;;;15.40;8.07;;;128.80;2252.80;;;;;;4914847;23;20123;-78
2022/02/12 08:59:30;;;;;;;24.27;11.45;;;230.70;1843.20;;;;;;4980222;23;20074;-93
2022/02/12 09:01:58;;;;;;;17.08;9.68;;;231.10;1817.60;;;;;;4901016;29;20040;-90
2022/02/12 09:04:24;;;;;;;14.70;7.32;;;256.00;1792.00;;;;;;4901012;29;20043;-92
2022/02/12 09:06:50;;;;;;;16.55;9.10;;;307.90;1638.40;;;;;;4901255;29;20035;-94
2022/02/12 09:09:17;;;;;;;27.98;13.63;;;;;;;;;;4901243;29;20539;-91
2022/02/12 09:11:45;;;;;;;16.05;8.43;;;640.20;793.60;;;;;;4901414;29;20382;-90
2022/02/12 09:14:12;;;;;;;11.82;6.20;;;717.60;691.20;;;;;;4901074;29;20035;-92
2022/02/12 09:16:40;;;;;;;11.02;7.15;;;768.80;640.00;;;;;;4900813;29;20036;-89
2022/02/12 09:19:07;;;;;;;15.48;6.88;;;819.40;614.40;;;;;;4901098;29;20029;-89
2022/02/12 09:21:33;;;;;;;22.48;12.45;;;870.50;563.20;;;;;;4901422;29;20047;-88
2022/02/12 09:23:59;;;;;;;16.30;8.98;;;871.20;537.60;;;;;;4900795;29;20059;-91
2022/02/12 09:26:30;;;;;;;14.27;9.30;;;922.00;537.60;;;;;;4900968;29;20475;-90
2022/02/12 09:29:05;;;;;;;28.67;14.57;;;947.50;486.40;;;;;;4900733;29;20370;-89
2022/02/12 09:31:31;;;;;;;16.58;7.95;;;947.80;460.80;;;;;;4900877;29;20508;-90
2022/02/12 09:33:57;;;;;;;28.80;15.95;;;947.60;486.40;;;;;;4900785;29;20024;-89
2022/02/12 09:36:23;;;;;;;16.67;10.48;;;973.30;486.40;;;;;;4901496;29;20044;-90
2022/02/12 09:38:50;;;;;;;18.45;8.55;;;973.50;409.60;;;;;;4900787;29;20024;-90
2022/02/12 09:41:25;;;;;;;14.68;9.82;;;973.60;435.20;;;;;;4902805;29;20028;-89
2022/02/12 09:43:55;;;;;;;41.47;18.20;;;973.70;435.20;;;;;;4904869;29;20043;-90
2022/02/12 09:46:59;;;;;;;14.93;10.52;;;998.40;435.20;;;;;;4904928;29;20028;-91
2022/02/12 09:49:25;;;;;;;14.15;8.30;;;998.90;435.20;;;;;;4898886;29;20032;-90
2022/02/12 09:51:52;;;;;;;20.40;10.35;;;998.90;435.20;;;;;;4904731;29;20076;-90
2022/02/12 09:54:20;;;;;;;17.63;13.75;;;1024.00;409.60;;;;;;4904610;29;20123;-92
2022/02/12 09:56:45;;;;;;;75.88;43.45;;;1024.70;409.60;;;;;;4904506;29;20084;-91
2022/02/12 09:59:11;;;;;;;15.45;8.98;;;1024.50;384.00;;;;;;4889212;29;20064;-91
2022/02/12 10:01:39;;;;;;;9.82;6.55;;;1049.80;409.60;;;;;;4885703;29;20037;-87
2022/02/12 10:04:14;;;;;;;10.93;6.97;;;1049.90;409.60;;;;;;4885659;29;20028;-88
2022/02/12 10:06:45;;;;;;;10.32;6.07;;;1049.90;409.60;;;;;;4885745;29;20040;-92
2022/02/12 10:09:12;;;;;;;6.07;4.75;;;1075.20;384.00;;;;;;4885755;29;20107;-89
2022/02/12 10:11:50;;;;;;;10.00;4.75;;;1075.60;358.40;;;;;;4885676;29;20081;-89
2022/02/12 10:14:22;;;;;;;8.68;4.30;;;1100.80;384.00;;;;;;4885384;29;20071;-92
2022/02/12 10:17:06;;;;;;;6.10;5.23;;;1101.00;384.00;;;;;;4885430;29;20043;-91
2022/02/12 10:19:35;;;;;;;9.35;6.25;;;1049.80;409.60;;;;;;4885370;29;20115;-91
2022/02/12 10:22:19;;;;;;;10.77;5.93;;;998.90;409.60;;;;;;4885508;29;20390;-89
2022/02/12 10:24:58;;;;;;;13.65;7.88;;;973.10;409.60;;;;;;4885262;29;20025;-88
2022/02/12 10:27:28;;;;;;;22.30;11.05;;;922.50;435.20;;;;;;4885178;29;20146;-89
2022/02/12 10:29:58;;;;;;;7.43;4.93;;;921.70;460.80;;;;;;4884988;29;20093;-90
2022/02/12 10:32:25;;;;;;;6.40;4.32;;;845.60;486.40;;;;;;4884936;29;20032;-90
2022/02/12 10:34:56;;;;;;;3.80;3.40;;;768.90;486.40;;;;;;4885102;29;20482;-88
2022/02/12 10:37:23;;;;;;;6.45;3.75;;;768.00;537.60;;;;;;4885142;29;20043;-88
2022/02/12 10:40:00;;;;;;;5.55;3.63;;;691.70;588.80;;;;;;4884915;29;20545;-89
2022/02/12 10:42:28;;;;;;;9.07;4.57;;;615.20;665.60;;;;;;4884696;29;20032;-91
2022/02/12 10:44:55;;;;;;;5.35;3.70;;;589.00;742.40;;;;;;4884830;29;20053;-89
2022/02/12 10:47:22;;;;;;;7.68;4.30;;;564.10;716.80;;;;;;4884822;29;20131;-90
2022/02/12 10:49:48;;;;;;;5.40;3.88;;;614.70;691.20;;;;;;4884743;29;20036;-90
2022/02/12 10:52:15;;;;;;;9.13;6.22;;;666.40;614.40;;;;;;4883795;29;20028;-87
2022/02/12 10:54:46;;;;;;;22.05;18.77;;;665.70;640.00;;;;;;4884788;29;20035;-89
2022/02/12 10:57:14;;;;;;;12.40;10.07;;;742.60;614.40;;;;;;4884667;29;20048;-90
2022/02/12 10:59:44;;;;;;;7.78;5.22;;;742.60;588.80;;;;;;4903630;29;20036;-91
2022/02/12 11:02:15;;;;;;;10.02;6.85;;;691.70;614.40;;;;;;4903354;29;20119;-90
2022/02/12 11:04:42;;;;;;;4.32;3.50;;;717.00;588.80;;;;;;4903792;29;20031;-92
2022/02/12 11:07:13;;;;;;;10.77;7.32;;;717.50;563.20;;;;;;4903435;29;20024;-89
2022/02/12 11:09:40;;;;;;;15.75;9.68;;;665.80;640.00;;;;;;4903372;29;20059;-89
2022/02/12 11:12:06;;;;;;;12.40;6.90;;;589.60;742.40;;;;;;4903298;29;20035;-89
2022/02/12 11:14:33;;;;;;;6.68;3.65;;;615.20;665.60;;;;;;4902498;29;20363;-89
2022/02/12 11:17:05;;;;;;;8.32;4.15;;;615.20;691.20;;;;;;4902914;29;20126;-89
2022/02/12 11:19:32;;;;;;;7.28;5.63;;;666.50;614.40;;;;;;4902817;29;20028;-88
2022/02/12 11:21:58;;;;;;;6.22;5.63;;;717.70;614.40;;;;;;4902999;29;20088;-89
2022/02/12 11:24:39;;;;;;;7.65;4.63;;;768.20;563.20;;;;;;4903264;29;20028;-92
2022/02/12 11:27:29;;;;;;;5.07;3.25;;;717.00;563.20;;;;;;4919301;29;20028;-90
2022/02/12 11:29:56;;;;;;;5.80;3.88;;;615.20;665.60;;;;;;4902908;29;20030;-89
2022/02/12 11:32:24;;;;;;;7.57;4.88;;;614.90;665.60;;;;;;4902894;29;20039;-90
2022/02/12 11:34:57;;;;;;;14.68;8.68;;;589.00;742.40;;;;;;4902889;29;20481;-90
2022/02/12 11:37:29;;;;;;;10.20;4.80;;;537.60;819.20;;;;;;4902841;29;20092;-90
2022/02/12 11:40:22;;;;;;;6.80;4.57;;;537.70;768.00;;;;;;4902827;29;20028;-91
2022/02/12 11:42:59;;;;;;;4.38;3.47;;;537.60;947.20;;;;;;4902886;29;20059;-90
2022/02/12 11:45:36;;;;;;;6.13;3.60;;;486.60;844.80;;;;;;4902751;29;20028;-90
2022/02/12 11:48:27;;;;;;;9.90;4.90;;;460.90;921.60;;;;;;4902601;29;20032;-95
2022/02/12 11:51:05;;;;;;;12.98;8.80;;;435.30;972.80;;;;;;4918205;29;20116;-91
2022/02/12 11:53:34;;;;;;;11.43;7.75;;;410.50;998.40;;;;;;4902569;29;20027;-89
2022/02/12 11:56:18;;;;;;;32.65;19.17;;;410.00;1049.60;;;;;;4902374;29;20024;-90
2022/02/12 11:58:45;;;;;;;6.75;4.25;;;409.60;1024.00;;;;;;4906110;29;20053;-89
2022/02/12 12:01:25;;;;;;;6.95;4.90;;;384.60;998.40;;;;;;4883630;29;20020;-90
2022/02/12 12:04:05;;;;;;;8.35;5.13;;;384.30;1024.00;;;;;;4883469;29;20093;-88
2022/02/12 12:06:34;;;;;;;12.50;8.27;;;384.00;1075.20;;;;;;4883536;29;20390;-91
2022/02/12 12:09:16;;;;;;;16.30;8.23;;;359.10;1100.80;;;;;;4883554;29;20108;-90
2022/02/12 12:12:12;;;;;;;8.43;5.60;;;359.00;1126.40;;;;;;4868372;29;20059;-90
2022/02/12 12:14:38;;;;;;;8.40;5.45;;;358.90;1100.80;;;;;;4883590;29;20028;-91
2022/02/12 12:17:05;;;;;;;9.38;5.25;;;358.80;1100.80;;;;;;4882949;29;20040;-90
2022/02/12 12:19:32;;;;;;;6.30;4.03;;;358.60;1100.80;;;;;;4883499;29;20031;-91
2022/02/12 12:22:00;;;;;;;8.02;5.40;;;358.60;1126.40;;;;;;4883209;29;20523;-93
2022/02/12 12:24:27;;;;;;;5.03;3.92;;;358.70;1152.00;;;;;;4883431;29;20025;-93
2022/02/12 12:26:53;;;;;;;5.40;3.42;;;358.60;1152.00;;;;;;4883236;29;20085;-90
2022/02/12 12:32:15;;;;;;;10.32;4.75;;;359.00;1100.80;;;;;;4902207;29;20435;-89
2022/02/12 12:34:53;;;;;;;19.52;7.43;;;359.10;1126.40;;;;;;4883203;29;20490;-90
2022/02/12 12:37:24;;;;;;;10.57;6.22;;;359.20;1100.80;;;;;;4899369;29;20520;-90
2022/02/12 12:39:50;;;;;;;9.27;6.72;;;359.20;1075.20;;;;;;4872343;29;20036;-90
2022/02/12 12:42:21;;;;;;;8.35;4.82;;;384.10;1075.20;;;;;;4880803;29;20036;-87
2022/02/12 12:45:11;;;;;;;9.13;4.78;;;435.60;998.40;;;;;;4883164;29;20036;-90
2022/02/12 12:47:47;;;;;;;7.20;5.70;;;460.90;921.60;;;;;;4883518;29;20025;-90
2022/02/12 12:50:13;;;;;;;8.98;4.80;;;435.80;921.60;;;;;;4886332;29;20127;-92
2022/02/12 12:52:39;;;;;;;10.57;4.93;;;461.00;947.20;;;;;;4882891;29;20028;-96
2022/02/12 12:55:10;;;;;;;6.82;5.38;;;460.90;921.60;;;;;;4882712;29;20051;-94
2022/02/12 12:57:43;;;;;;;9.70;4.45;;;487.10;896.00;;;;;;4887759;29;20076;-96
2022/02/12 13:00:15;;;;;;;5.70;3.97;;;486.90;870.40;;;;;;4884455;29;20449;-94
2022/02/12 13:02:50;;;;;;;8.32;3.63;;;614.90;716.80;;;;;;4882671;29;20552;-89
2022/02/12 13:05:30;;;;;;;17.05;12.45;;;691.70;640.00;;;;;;4882473;29;20029;-89
2022/02/12 13:08:01;;;;;;;55.25;36.35;;;742.90;588.80;;;;;;4882493;29;20051;-88
2022/02/12 13:10:28;;;;;;;31.90;22.20;;;691.30;588.80;;;;;;4882474;29;20123;-88
2022/02/12 13:12:56;;;;;;;10.77;7.80;;;666.40;640.00;;;;;;4881387;29;20028;-89
2022/02/12 13:15:37;;;;;;;7.95;6.38;;;691.90;588.80;;;;;;4896595;29;20016;-87
2022/02/12 13:18:05;;;;;;;10.15;6.40;;;743.20;563.20;;;;;;4880410;29;20079;-87
2022/02/12 13:20:31;;;;;;;40.75;35.63;;;819.40;537.60;;;;;;4881710;29;20033;-86
2022/02/12 13:23:02;;;;;;;17.92;16.02;;;845.10;537.60;;;;;;4880625;29;20120;-87
2022/02/12 13:25:30;;;;;;;14.68;13.13;;;844.80;537.60;;;;;;4880548;29;20076;-88
2022/02/12 13:27:58;;;;;;;5.90;4.25;;;819.70;512.00;;;;;;4880471;29;20035;-88
2022/02/12 13:30:34;;;;;;;4.93;3.50;;;819.40;537.60;;;;;;4881139;29;20075;-87
2022/02/12 13:33:08;;;;;;;8.90;5.55;;;692.00;563.20;;;;;;4880768;29;20032;-86
2022/02/12 13:35:39;;;;;;;12.40;7.65;;;614.40;691.20;;;;;;4897583;29;20079;-88
2022/02/12 13:38:06;;;;;;;20.33;11.95;;;538.50;716.80;;;;;;4881860;29;20032;-86
2022/02/12 13:40:39;;;;;;;11.85;8.60;;;487.20;768.00;;;;;;4882369;29;20048;-86
2022/02/12 13:43:10;;;;;;;6.25;4.78;;;461.50;844.80;;;;;;4898863;29;20438;-89
2022/02/12 13:45:38;;;;;;;17.42;10.50;;;512.50;793.60;;;;;;4882249;29;20047;-88
2022/02/12 13:48:08;;;;;;;7.97;5.05;;;563.70;742.40;;;;;;4882106;29;20052;-86
2022/02/12 13:50:39;;;;;;;18.60;11.68;;;512.60;742.40;;;;;;4882262;29;20541;-87
2022/02/12 13:53:16;;;;;;;63.92;28.67;;;563.20;768.00;;;;;;4881522;29;20033;-86
2022/02/12 13:55:49;;;;;;;21.48;12.18;;;666.20;640.00;;;;;;4877898;29;20029;-87
2022/02/12 13:58:15;;;;;;;112.03;58.45;;;743.00;614.40;;;;;;4889382;29;20509;-85
2022/02/12 14:00:42;;;;;;;44.83;27.98;;;793.80;537.60;;;;;;4900979;29;20119;-89
2022/02/12 14:03:09;;;;;;;69.20;35.80;;;717.00;588.80;;;;;;4900633;29;20040;-89
2022/02/12 14:05:35;;;;;;;8.80;5.35;;;716.90;588.80;;;;;;4900711;29;20028;-88
2022/02/12 14:08:01;;;;;;;5.32;4.00;;;743.10;537.60;;;;;;4900565;29;20039;-87
2022/02/12 14:10:27;;;;;;;23.05;13.10;;;768.60;512.00;;;;;;4900434;29;20028;-87
2022/02/12 14:12:57;;;;;;;6.57;5.13;;;794.10;512.00;;;;;;4904677;29;20446;-89
2022/02/12 14:15:26;;;;;;;13.35;7.90;;;819.20;486.40;;;;;;4905814;29;20032;-88
2022/02/12 14:17:52;;;;;;;13.05;6.10;;;793.70;537.60;;;;;;4900398;29;20048;-88
2022/02/12 14:20:18;;;;;;;22.63;14.07;;;768.90;512.00;;;;;;4900317;29;20091;-89
2022/02/12 14:22:44;;;;;;;13.63;8.25;;;793.60;512.00;;;;;;4900581;29;20028;-88
2022/02/12 14:25:11;;;;;;;9.02;5.70;;;793.80;537.60;;;;;;4900502;29;20032;-89
2022/02/12 14:27:37;;;;;;;91.63;58.30;;;768.50;512.00;;;;;;4902733;29;20032;-87
2022/02/12 14:30:09;;;;;;;25.08;20.08;;;717.00;563.20;;;;;;4903647;29;20036;-90
2022/02/12 14:32:35;;;;;;;10.35;8.27;;;614.80;640.00;;;;;;4904351;29;20028;-87
2022/02/12 14:35:01;;;;;;;13.23;8.27;;;563.20;742.40;;;;;;4904119;29;20039;-87
2022/02/12 14:37:26;;;;;;;8.95;5.68;;;512.30;716.80;;;;;;4903786;29;20175;-84
2022/02/12 14:39:53;;;;;;;15.40;4.82;;;486.70;793.60;;;;;;4902979;29;20381;-85
2022/02/12 14:42:18;;;;;;;14.60;5.03;;;461.10;819.20;;;;;;4935443;29;20384;-89
2022/02/12 14:44:44;;;;;;;7.10;5.35;;;435.80;844.80;;;;;;4935432;29;20034;-88
2022/02/12 14:47:11;;;;;;;18.27;10.20;;;410.40;921.60;;;;;;4935291;29;20469;-86
2022/02/12 14:49:37;;;;;;;11.48;6.40;;;409.80;947.20;;;;;;4903804;29;20024;-89
2022/02/12 14:52:05;;;;;;;11.57;7.20;;;384.80;947.20;;;;;;4903617;29;20115;-88
2022/02/12 14:54:30;;;;;;;33.25;20.00;;;384.30;998.40;;;;;;4903618;29;20152;-92
2022/02/12 14:56:56;;;;;;;48.78;28.45;;;384.00;972.80;;;;;;4935093;29;20130;-92
2022/02/12 14:59:22;;;;;;;24.55;16.55;;;359.20;1024.00;;;;;;4918157;29;20056;-90
2022/02/12 15:01:48;;;;;;;159.90;121.60;;;358.90;1024.00;;;;;;4884785;29;20509;-91
2022/02/12 15:04:14;;;;;;;40.80;30.83;;;358.70;1075.20;;;;;;4884700;29;20081;-89
2022/02/12 15:06:40;;;;;;;34.33;20.10;;;358.50;1075.20;;;;;;4884777;29;20033;-88
2022/02/12 15:09:06;;;;;;;32.58;19.65;;;333.70;1075.20;;;;;;4884774;29;20029;-88
2022/02/12 15:11:32;;;;;;;38.03;24.50;;;333.50;1075.20;;;;;;4884900;29;20027;-90
2022/02/12 15:14:00;;;;;;;24.55;15.07;;;333.20;1126.40;;;;;;4884660;29;20037;-89
2022/02/12 15:16:26;;;;;;;18.20;7.70;;;333.00;1126.40;;;;;;4884489;29;20093;-90
2022/02/12 15:18:52;;;;;;;31.83;18.48;;;332.80;1126.40;;;;;;4884605;29;20121;-91
2022/02/12 15:21:18;;;;;;;29.55;16.63;;;;;;;;;;4884397;29;20029;-90
2022/02/12 15:23:44;;;;;;;29.48;16.98;;;332.80;1177.60;;;;;;4884407;29;20036;-93
2022/02/12 15:26:10;;;;;;;28.63;16.63;;;307.90;1177.60;;;;;;4884307;29;20115;-91
2022/02/12 15:28:37;;;;;;;24.35;12.18;;;307.80;1203.20;;;;;;4884354;29;20032;-91
2022/02/12 15:31:06;;;;;;;40.25;15.27;;;307.60;1203.20;;;;;;4884280;29;20031;-89
2022/02/12 15:33:33;;;;;;;43.90;16.98;;;307.50;1203.20;;;;;;4884398;29;20032;-90
2022/02/12 15:36:00;;;;;;;82.25;30.83;;;307.30;1203.20;;;;;;4884220;29;20135;-91
2022/02/12 15:38:28;;;;;;;32.13;9.32;;;307.20;1228.80;;;;;;4884212;29;20394;-91
2022/02/12 15:40:56;;;;;;;12.13;6.03;;;282.50;1228.80;;;;;;4884036;29;20025;-90
2022/02/12 15:43:22;;;;;;;120.20;73.68;;;;;;;;;;4870307;29;20452;-91
2022/02/12 15:45:48;;;;;;;411.30;250.23;;;;;;;;;;4865455;29;20064;-91
2022/02/12 15:48:14;;;;;;;445.73;261.75;;;;;;;;;;4865958;29;20037;-94
2022/02/12 15:50:42;;;;;;;356.08;201.82;;;;;;;;;;4865580;29;20029;-93
2022/02/12 15:53:11;;;;;;;648.35;404.27;;;;;;;;;;4865237;29;20099;-91
2022/02/12 15:55:37;;;;;;;530.83;287.92;;;;;;;;;;4865264;29;20029;-92
2022/02/12 15:58:03;;;;;;;409.02;190.80;;;;;;;;;;4871056;29;20441;-92
2022/02/12 16:00:29;;;;;;;869.92;457.55;;;;;;;;;;4883870;29;20036;-93
2022/02/12 16:02:56;;;;;;;656.83;334.15;;;;;;;;;;4883996;29;20033;-93
2022/02/12 16:05:22;;;;;;;582.33;301.02;;;;;;;;;;4883874;29;20039;-91
2022/02/12 16:07:48;;;;;;;649.08;330.95;;;;;;;;;;4883583;29;20085;-93
2022/02/12 16:10:14;;;;;;;620.92;305.45;;;;;;;;;;4886296;29;20051;-91
2022/02/12 16:12:47;;;;;;;218.55;94.85;;;;;;;;;;4912121;29;20028;-91
2022/02/12 16:15:14;;;;;;;219.40;87.93;;;;;;;;;;4901981;29;20034;-91
2022/02/12 16:17:40;;;;;;;478.15;185.77;;;;;;;;;;4901948;29;20438;-92
2022/02/12 16:20:07;;;;;;;532.45;226.07;;;;;;;;;;4901923;29;20500;-92
2022/02/12 16:22:33;;;;;;;564.15;239.32;;;;;;;;;;4902125;29;20032;-90
2022/02/12 16:24:59;;;;;;;655.42;301.40;;;231.10;1331.20;;;;;;4901923;29;20039;-86
2022/02/12 16:27:26;;;;;;;277.52;121.03;;;231.10;1305.60;;;;;;4902050;29;20028;-87
2022/02/12 16:29:53;;;;;;;153.25;73.05;;;231.20;1305.60;;;;;;4901982;29;20039;-86
2022/02/12 16:32:19;;;;;;;278.15;136.18;;;231.20;1331.20;;;;;;4901857;29;20051;-87
2022/02/12 16:34:46;;;;;;;351.05;204.57;;;231.20;1305.60;;;;;;4901504;29;20473;-94
2022/02/12 16:37:12;;;;;;;131.18;90.22;;;231.20;1331.20;;;;;;4901174;29;20051;-87
2022/02/12 16:39:38;;;;;;;74.80;53.05;;;231.10;1305.60;;;;;;4901545;29;20091;-90
2022/02/12 16:42:04;;;;;;;50.00;29.10;;;231.20;1331.20;;;;;;4901377;29;20032;-86
2022/02/12 16:44:31;;;;;;;34.47;24.92;;;231.10;1356.80;;;;;;4901524;29;20183;-86
2022/02/12 16:47:01;;;;;;;35.08;21.75;;;231.10;1356.80;;;;;;4901495;29;20036;-87
2022/02/12 16:49:28;;;;;;;42.70;26.55;;;231.00;1331.20;;;;;;4901541;29;20118;-85
2022/02/12 16:51:54;;;;;;;30.52;22.05;;;231.00;1331.20;;;;;;4917515;29;20043;-86
2022/02/12 16:54:20;;;;;;;34.33;16.40;;;231.00;1356.80;;;;;;4901041;29;20032;-87
2022/02/12 16:56:47;;;;;;;19.80;13.25;;;230.90;1331.20;;;;;;4917509;29;20108;-86
2022/02/12 16:59:13;;;;;;;18.23;12.02;;;230.90;1331.20;;;;;;4885091;29;20053;-90
2022/02/12 17:01:40;;;;;;;13.07;9.70;;;230.90;1331.20;;;;;;4873324;29;20037;-86
2022/02/12 17:04:06;;;;;;;19.25;11.38;;;230.80;1356.80;;;;;;4863771;29;20463;-86
2022/02/12 17:06:32;;;;;;;27.67;14.77;;;230.80;1356.80;;;;;;4873727;29;20088;-90
2022/02/12 17:08:58;;;;;;;32.35;18.92;;;230.80;1382.40;;;;;;4874020;29;20371;-91
2022/02/12 17:11:28;;;;;;;24.80;15.13;;;230.70;1356.80;;;;;;4894827;29;20043;-88
2022/02/12 17:13:57;;;;;;;32.50;22.08;;;230.70;1382.40;;;;;;4864206;29;20486;-92
2022/02/12 17:16:23;;;;;;;108.03;58.03;;;230.70;1356.80;;;;;;4867396;29;20785;-86
2022/02/12 17:18:51;;;;;;;143.13;68.85;;;230.60;1356.80;;;;;;4896550;29;20025;-93
2022/02/12 17:21:17;;;;;;;146.40;65.63;;;230.50;1382.40;;;;;;4863460;29;20036;-85
2022/02/12 17:23:43;;;;;;;124.72;60.53;;;230.50;1408.00;;;;;;4877547;29;20037;-89
2022/02/12 17:26:09;;;;;;;106.72;57.38;;;230.40;1408.00;;;;;;4876808;29;20180;-90
2022/02/12 17:28:35;;;;;;;105.72;58.55;;;230.40;1408.00;;;;;;4863549;29;20033;-90
2022/02/12 17:31:01;;;;;;;93.63;54.72;;;205.70;1408.00;;;;;;4864377;29;20032;-89
2022/02/12 17:33:27;;;;;;;106.32;58.35;;;;;;;;;;4863528;29;20075;-90
2022/02/12 17:35:54;;;;;;;62.88;39.17;;;;;;;;;;4880330;29;20495;-91
2022/02/12 17:38:20;;;;;;;46.58;29.05;;;;;;;;;;4868880;29;20086;-90
2022/02/12 17:40:46;;;;;;;32.42;21.40;;;;;;;;;;4899183;29;20475;-88
2022/02/12 17:43:12;;;;;;;35.35;20.35;;;;;;;;;;4882258;29;20032;-89
2022/02/12 17:45:38;;;;;;;18.20;11.30;;;;;;;;;;4882561;29;20428;-90
2022/02/12 17:48:05;;;;;;;15.07;8.88;;;;;;;;;;4899034;29;20116;-92
2022/02/12 17:50:31;;;;;;;15.60;8.20;;;;;;;;;;4882484;29;20124;-92
2022/02/12 17:52:57;;;;;;;23.52;8.45;;;;;;;;;;4882266;29;20086;-94
2022/02/12 17:55:25;;;;;;;15.00;6.88;;;205.50;1433.60;;;;;;4885752;29;20041;-93
2022/02/12 17:57:55;;;;;;;13.23;6.45;;;205.30;1459.20;;;;;;4868195;29;20061;-91
2022/02/12 18:00:22;;;;;;;19.88;7.82;;;205.30;1459.20;;;;;;4882419;29;20116;-91
2022/02/12 18:02:48;;;;;;;11.65;6.85;;;205.20;1484.80;;;;;;4884881;29;20036;-91
2022/02/12 18:05:14;;;;;;;17.30;8.75;;;205.10;1484.80;;;;;;4885760;29;20036;-93
2022/02/12 18:07:40;;;;;;;21.42;11.68;;;205.10;1459.20;;;;;;4885476;29;20035;-94
2022/02/12 18:10:07;;;;;;;34.95;14.98;;;205.00;1484.80;;;;;;4885730;29;20036;-92
2022/02/12 18:12:33;;;;;;;19.67;9.77;;;204.90;1459.20;;;;;;4885716;29;20040;-90
2022/02/12 18:15:00;;;;;;;18.25;8.77;;;204.90;1484.80;;;;;;4885726;29;20032;-91
2022/02/12 18:17:26;;;;;;;33.50;12.38;;;204.80;1484.80;;;;;;4885667;29;20487;-93
2022/02/12 18:19:53;;;;;;;25.15;11.80;;;180.10;1484.80;;;;;;4885641;29;20119;-91
2022/02/12 18:22:18;;;;;;;23.05;11.93;;;180.10;1510.40;;;;;;4885757;29;20033;-91
2022/02/12 18:24:45;;;;;;;26.15;12.63;;;;;;;;;;4885569;29;20132;-91
2022/02/12 18:27:11;;;;;;;34.15;13.95;;;;;;;;;;4885617;29;20033;-92
2022/02/12 18:29:43;;;;;;;29.88;12.95;;;;;;;;;;4885483;29;20048;-90
2022/02/12 18:32:10;;;;;;;40.50;16.13;;;180.10;1459.20;;;;;;4902311;29;20396;-89
2022/02/12 18:34:37;;;;;;;37.10;15.23;;;179.90;1510.40;;;;;;4904260;29;20032;-90
2022/02/12 18:37:03;;;;;;;36.85;13.23;;;179.80;1510.40;;;;;;4904141;29;20077;-91
2022/02/12 18:39:31;;;;;;;48.15;20.85;;;179.80;1510.40;;;;;;4920865;29;20056;-91
2022/02/12 18:41:57;;;;;;;42.03;19.88;;;179.80;1536.00;;;;;;4903988;29;20039;-89
2022/02/12 18:44:24;;;;;;;52.80;23.40;;;179.70;1510.40;;;;;;4920610;29;20040;-91
2022/02/12 18:46:50;;;;;;;58.90;24.70;;;179.70;1510.40;;;;;;4903810;29;20038;-91
2022/02/12 18:49:16;;;;;;;65.38;27.83;;;179.60;1510.40;;;;;;4903668;29;20035;-91
2022/02/12 18:51:42;;;;;;;100.75;41.97;;;179.60;1536.00;;;;;;4903512;29;20426;-93
2022/02/12 18:54:09;;;;;;;58.22;26.58;;;179.60;1536.00;;;;;;4903985;29;20036;-91
2022/02/12 18:56:36;;;;;;;26.65;13.88;;;179.50;1587.20;;;;;;4903598;29;20111;-89
2022/02/12 18:59:06;;;;;;;37.95;17.17;;;179.50;1561.60;;;;;;4902962;29;20048;-89
2022/02/12 19:01:38;;;;;;;30.05;15.15;;;179.30;1536.00;;;;;;4903583;29;20091;-89
2022/02/12 19:04:08;;;;;;;21.35;13.18;;;179.30;1536.00;;;;;;4903342;29;20477;-90
2022/02/12 19:06:36;;;;;;;26.67;12.90;;;179.30;1561.60;;;;;;4903354;29;20028;-88
2022/02/12 19:09:02;;;;;;;23.85;14.55;;;179.20;1587.20;;;;;;4903311;29;20028;-89
2022/02/12 19:11:28;;;;;;;20.27;11.52;;;179.30;1587.20;;;;;;4903247;29;20133;-90
2022/02/12 19:13:59;;;;;;;16.92;11.45;;;179.30;1587.20;;;;;;4902252;29;20143;-89
2022/02/12 19:16:24;;;;;;;19.92;10.95;;;179.20;1587.20;;;;;;4903224;29;20032;-88
2022/02/12 19:18:50;;;;;;;57.60;27.10;;;154.40;1587.20;;;;;;4903211;29;20397;-89
2022/02/12 19:21:16;;;;;;;237.55;122.10;;;154.40;1587.20;;;;;;4919958;29;20102;-90
2022/02/12 19:23:42;;;;;;;79.15;47.42;;;154.40;1587.20;;;;;;4902915;29;20545;-90
2022/02/12 19:26:08;;;;;;;44.17;26.02;;;154.30;1612.80;;;;;;4902997;29;20080;-91
2022/02/12 19:28:34;;;;;;;25.05;15.05;;;154.30;1612.80;;;;;;4919799;29;20071;-91
2022/02/12 19:31:00;;;;;;;19.33;10.85;;;154.30;1612.80;;;;;;4902870;29;20024;-91
2022/02/12 19:33:25;;;;;;;20.70;10.38;;;154.40;1638.40;;;;;;4902719;29;20071;-88
2022/02/12 19:35:52;;;;;;;18.98;10.13;;;154.20;1638.40;;;;;;4902670;29;20025;-89
2022/02/12 19:38:18;;;;;;;22.10;11.70;;;154.10;1638.40;;;;;;4903081;29;20028;-92
2022/02/12 19:40:45;;;;;;;20.65;11.88;;;154.00;1638.40;;;;;;4902820;29;20173;-91
2022/02/12 19:43:12;;;;;;;23.33;11.77;;;154.00;1664.00;;;;;;4902437;29;20035;-87
2022/02/12 19:45:38;;;;;;;22.23;12.43;;;154.00;1664.00;;;;;;4902417;29;20025;-89
2022/02/12 19:48:04;;;;;;;23.58;13.07;;;154.00;1689.60;;;;;;4902517;29;20032;-89
2022/02/12 19:50:30;;;;;;;32.10;19.00;;;153.90;1689.60;;;;;;4902262;29;20055;-89
2022/02/12 19:52:56;;;;;;;41.30;24.20;;;153.80;1664.00;;;;;;4919259;29;20070;-88
2022/02/12 19:55:22;;;;;;;28.42;16.15;;;153.80;1689.60;;;;;;4902321;29;20060;-89
2022/02/12 19:57:48;;;;;;;26.98;17.02;;;153.70;1689.60;;;;;;4901938;29;20128;-89
2022/02/12 20:00:16;;;;;;;26.25;18.83;;;153.70;1689.60;;;;;;4902552;29;20069;-88
2022/02/12 20:02:42;;;;;;;23.70;14.32;;;153.60;1689.60;;;;;;4902421;29;20073;-90
2022/02/12 20:05:10;;;;;;;22.98;13.57;;;153.60;1715.20;;;;;;4902083;29;20398;-90